createdAt,value
2018-05-03T00:02:40.406Z,11.57
2018-05-03T00:05:44.589Z,11.27
2018-05-03T00:08:47.915Z,12.77
2018-05-03T00:11:52.090Z,10.23
2018-05-03T00:14:55.418Z,11.47
2018-05-03T00:17:58.769Z,12.43
2018-05-03T00:21:02.107Z,10.80
2018-05-03T00:24:05.452Z,11.57
2018-05-03T00:27:08.764Z,13.47
2018-05-03T00:30:12.213Z,19.47
2018-05-03T00:33:16.315Z,12.43
2018-05-03T00:36:19.713Z,10.33
2018-05-03T00:39:23.056Z,12.73
2018-05-03T00:42:26.415Z,12.33
2018-05-03T00:45:29.721Z,9.93
2018-05-03T00:48:33.048Z,15.07
2018-05-03T00:51:36.377Z,10.77
2018-05-03T00:54:48.401Z,11.97
2018-05-03T00:57:51.749Z,9.47
2018-05-03T01:00:55.070Z,9.53
2018-05-03T01:03:58.402Z,11.57
2018-05-03T01:07:01.722Z,13.00
2018-05-03T01:10:05.810Z,10.93
2018-05-03T01:13:09.141Z,11.53
2018-05-03T01:16:13.207Z,12.43
2018-05-03T01:19:16.516Z,9.87
2018-05-03T01:22:19.820Z,11.30
2018-05-03T01:25:23.145Z,13.47
2018-05-03T01:28:27.225Z,12.43
2018-05-03T01:31:30.581Z,13.33
2018-05-03T01:34:33.908Z,12.77
2018-05-03T01:37:37.238Z,14.60
2018-05-03T01:40:40.623Z,16.30
2018-05-03T01:43:44.013Z,14.00
2018-05-03T01:46:47.329Z,11.63
2018-05-03T01:49:50.719Z,11.97
2018-05-03T01:52:54.119Z,14.50
2018-05-03T01:55:57.522Z,10.70
2018-05-03T01:59:00.831Z,11.63
2018-05-03T02:02:04.136Z,15.13
2018-05-03T02:05:07.457Z,11.30
2018-05-03T02:08:12.157Z,14.50
2018-05-03T02:11:15.547Z,13.10
2018-05-03T02:14:18.945Z,12.50
2018-05-03T02:17:22.250Z,10.83
2018-05-03T02:20:25.645Z,12.10
2018-05-03T02:23:28.973Z,11.73
2018-05-03T02:26:33.046Z,12.27
2018-05-03T02:29:36.456Z,14.73
2018-05-03T02:32:39.791Z,13.10
2018-05-03T02:35:43.873Z,11.63
2018-05-03T02:38:47.256Z,11.97
2018-05-03T02:41:50.667Z,12.30
2018-05-03T02:44:54.065Z,14.57
2018-05-03T02:47:57.461Z,16.57
2018-05-03T02:51:00.873Z,12.33
2018-05-03T02:54:04.203Z,12.90
2018-05-03T02:57:26.196Z,14.93
2018-05-03T03:00:53.059Z,15.13
2018-05-03T03:04:20.062Z,12.93
2018-05-03T03:11:49.321Z,14.40
2018-05-03T03:15:15.917Z,12.80
2018-05-03T03:18:42.741Z,16.90
2018-05-03T03:22:09.576Z,15.90
2018-05-03T03:29:43.936Z,14.37
2018-05-03T03:33:05.271Z,17.20
2018-05-03T03:40:25.681Z,16.30
2018-05-03T03:43:46.801Z,15.93
2018-05-03T03:46:50.200Z,16.47
2018-05-03T03:49:53.606Z,17.17
2018-05-03T03:52:56.927Z,16.23
2018-05-03T03:56:01.014Z,19.50
2018-05-03T03:59:04.427Z,16.93
2018-05-03T04:02:07.804Z,22.00
2018-05-03T04:05:11.214Z,20.83
2018-05-03T04:08:14.545Z,22.43
2018-05-03T04:11:18.635Z,24.83
2018-05-03T04:14:22.027Z,26.53
2018-05-03T04:17:43.247Z,25.10
2018-05-03T04:21:15.080Z,26.27
2018-05-03T04:24:36.066Z,29.67
2018-05-03T04:27:40.161Z,28.70
2018-05-03T04:30:43.539Z,27.27
2018-05-03T04:33:46.937Z,30.23
2018-05-03T04:36:50.337Z,27.93
2018-05-03T04:39:53.738Z,25.87
2018-05-03T04:42:57.056Z,15.37
2018-05-03T04:46:00.442Z,7.73
2018-05-03T04:49:03.824Z,8.60
2018-05-03T04:52:07.157Z,12.90
2018-05-03T04:55:10.542Z,7.90
2018-05-03T04:58:13.864Z,10.83
2018-05-03T05:01:17.229Z,12.13
2018-05-03T05:04:20.642Z,17.20
2018-05-03T05:07:24.034Z,12.03
2018-05-03T05:10:27.497Z,12.53
2018-05-03T05:13:30.834Z,12.20
2018-05-03T05:16:34.225Z,11.77
2018-05-03T05:19:37.526Z,10.87
2018-05-03T05:22:40.924Z,15.57
2018-05-03T05:25:44.313Z,16.93
2018-05-03T05:28:47.729Z,11.03
2018-05-03T05:31:51.030Z,12.47
2018-05-03T05:34:54.391Z,11.87
2018-05-03T05:37:57.692Z,9.27
2018-05-03T05:41:01.039Z,10.47
2018-05-03T05:44:04.347Z,11.33
2018-05-03T05:47:07.672Z,6.43
2018-05-03T05:50:11.750Z,8.50
2018-05-03T05:53:15.073Z,7.73
2018-05-03T05:56:19.140Z,6.17
2018-05-03T05:59:22.478Z,8.50
2018-05-03T06:02:26.555Z,6.40
2018-05-03T06:05:30.016Z,5.00
2018-05-03T06:08:33.356Z,8.83
2018-05-03T06:11:36.756Z,6.33
2018-05-03T06:14:40.082Z,8.27
2018-05-03T06:17:43.509Z,9.57
2018-05-03T06:20:46.809Z,5.97
2018-05-03T06:23:50.158Z,6.17
2018-05-03T06:26:53.469Z,6.03
2018-05-03T06:29:56.850Z,6.33
2018-05-03T06:33:00.154Z,9.40
2018-05-03T06:36:03.489Z,6.07
2018-05-03T06:39:07.556Z,7.80
2018-05-03T06:42:10.886Z,5.77
2018-05-03T06:45:14.276Z,6.50
2018-05-03T06:48:17.547Z,5.70
2018-05-03T06:51:20.863Z,7.27
2018-05-03T06:54:24.257Z,10.43
2018-05-03T06:57:27.570Z,5.83
2018-05-03T07:00:30.892Z,6.10
2018-05-03T07:03:34.971Z,7.37
2018-05-03T07:06:38.370Z,7.73
2018-05-03T07:09:41.668Z,7.80
2018-05-03T07:12:45.223Z,6.83
2018-05-03T07:15:48.521Z,9.63
2018-05-03T07:18:51.869Z,10.27
2018-05-03T07:21:55.183Z,9.87
2018-05-03T07:24:58.535Z,8.50
2018-05-03T07:28:01.851Z,8.47
2018-05-03T07:31:05.180Z,10.23
2018-05-03T07:34:08.559Z,11.23
2018-05-03T07:37:11.957Z,5.50
2018-05-03T07:40:15.264Z,6.40
2018-05-03T07:43:18.653Z,6.43
2018-05-03T07:46:21.965Z,6.60
2018-05-03T07:49:25.303Z,5.77
2018-05-03T07:52:28.623Z,5.53
2018-05-03T07:55:31.955Z,8.53
2018-05-03T07:58:35.355Z,4.97
2018-05-03T08:01:39.561Z,6.97
2018-05-03T08:04:42.866Z,5.67
2018-05-03T08:07:46.268Z,5.10
2018-05-03T08:10:49.652Z,5.33
2018-05-03T08:13:53.052Z,5.13
2018-05-03T08:16:56.483Z,6.30
2018-05-03T08:19:59.864Z,6.60
2018-05-03T08:23:03.182Z,6.33
2018-05-03T08:26:08.036Z,7.70
2018-05-03T08:29:12.110Z,5.20
2018-05-03T08:32:15.508Z,7.27
2018-05-03T08:35:18.826Z,6.70
2018-05-03T08:38:22.177Z,7.80
2018-05-03T08:41:25.490Z,5.50
2018-05-03T08:44:28.894Z,3.73
2018-05-03T08:47:33.020Z,8.13
2018-05-03T08:50:36.422Z,4.47
2018-05-03T08:53:39.720Z,6.50
2018-05-03T08:56:43.070Z,7.30
2018-05-03T08:59:46.388Z,6.27
2018-05-03T09:02:49.757Z,4.30
2018-05-03T09:05:53.920Z,4.30
2018-05-03T09:08:57.334Z,7.10
2018-05-03T09:12:00.723Z,5.87
2018-05-03T09:15:04.176Z,4.90
2018-05-03T09:18:07.448Z,6.80
2018-05-03T09:21:10.840Z,4.20
2018-05-03T09:24:14.230Z,5.83
2018-05-03T09:27:17.565Z,4.60
2018-05-03T09:30:21.638Z,5.50
2018-05-03T09:33:24.986Z,4.97
2018-05-03T09:36:29.063Z,10.50
2018-05-03T09:39:32.463Z,6.60
2018-05-03T09:42:36.821Z,7.90
2018-05-03T09:45:40.938Z,11.27
2018-05-03T09:48:45.006Z,5.60
2018-05-03T09:51:48.360Z,7.17
2018-05-03T09:54:52.520Z,8.47
2018-05-03T09:57:55.852Z,7.73
2018-05-03T10:00:59.246Z,6.93
2018-05-03T10:04:02.647Z,5.87
2018-05-03T10:07:05.979Z,3.93
2018-05-03T10:10:09.313Z,9.33
2018-05-03T10:13:12.753Z,4.60
2018-05-03T10:16:16.117Z,4.57
2018-05-03T10:19:19.430Z,4.83
2018-05-03T10:22:22.885Z,1.93
2018-05-03T10:25:26.203Z,2.83
2018-05-03T10:28:29.521Z,5.87
2018-05-03T10:31:32.837Z,3.87
2018-05-03T10:34:36.176Z,3.23
2018-05-03T10:37:39.473Z,7.50
2018-05-03T10:40:42.937Z,7.60
2018-05-03T10:43:46.312Z,3.03
2018-05-03T10:46:49.664Z,4.30
2018-05-03T10:49:53.069Z,3.93
2018-05-03T10:52:56.402Z,7.83
2018-05-03T10:55:59.720Z,6.77
2018-05-03T10:59:03.058Z,1.97
2018-05-03T11:02:06.357Z,4.67
2018-05-03T11:05:09.825Z,3.43
2018-05-03T11:08:13.131Z,2.90
2018-05-03T11:11:16.493Z,5.20
2018-05-03T11:14:19.857Z,5.70
2018-05-03T11:17:23.305Z,2.77
2018-05-03T11:20:26.633Z,2.83
2018-05-03T11:23:30.736Z,5.63
2018-05-03T11:26:34.071Z,4.93
2018-05-03T11:29:37.399Z,4.40
2018-05-03T11:32:40.709Z,2.17
2018-05-03T11:35:44.060Z,5.63
2018-05-03T11:38:47.370Z,3.20
2018-05-03T11:41:50.805Z,2.47
2018-05-03T11:44:54.119Z,3.40
2018-05-03T11:47:57.522Z,3.00
2018-05-03T11:51:00.847Z,3.70
2018-05-03T11:54:05.000Z,3.17
2018-05-03T11:57:08.352Z,2.87
2018-05-03T12:00:11.698Z,2.33
2018-05-03T12:03:15.118Z,3.00
2018-05-03T12:06:18.513Z,2.17
2018-05-03T12:09:21.929Z,5.30
2018-05-03T12:12:25.282Z,3.87
2018-05-03T12:15:28.595Z,3.10
2018-05-03T12:18:31.969Z,3.07
2018-05-03T12:21:35.272Z,4.87
2018-05-03T12:24:38.606Z,3.93
2018-05-03T12:27:42.023Z,4.20
2018-05-03T12:30:45.409Z,4.20
2018-05-03T12:33:48.729Z,4.13
2018-05-03T12:36:52.113Z,3.20
2018-05-03T12:39:55.506Z,4.00
2018-05-03T12:42:58.906Z,2.57
2018-05-03T12:46:02.222Z,2.27
2018-05-03T12:49:05.565Z,2.63
2018-05-03T12:52:09.527Z,3.90
2018-05-03T12:55:12.891Z,2.97
2018-05-03T12:58:16.217Z,4.33
2018-05-03T13:01:19.694Z,2.07
2018-05-03T13:04:23.728Z,2.90
2018-05-03T13:07:27.143Z,1.93
2018-05-03T13:10:30.475Z,3.73
2018-05-03T13:13:34.600Z,3.67
2018-05-03T13:16:37.924Z,2.60
2018-05-03T13:19:41.332Z,1.37
2018-05-03T13:22:44.637Z,3.10
2018-05-03T13:25:48.038Z,3.13
2018-05-03T13:28:51.342Z,4.50
2018-05-03T13:31:54.685Z,2.80
2018-05-03T13:34:58.776Z,2.00
2018-05-03T13:38:02.142Z,4.00
2018-05-03T13:41:05.485Z,5.50
2018-05-03T13:44:09.620Z,5.17
2018-05-03T13:47:12.960Z,3.43
2018-05-03T13:50:16.303Z,2.40
2018-05-03T13:53:20.491Z,15.53
2018-05-03T13:56:24.566Z,2.67
2018-05-03T13:59:27.883Z,2.60
2018-05-03T14:02:31.229Z,6.50
2018-05-03T14:05:35.426Z,3.83
2018-05-03T14:08:38.770Z,2.60
2018-05-03T14:11:42.076Z,3.43
2018-05-03T14:14:45.517Z,5.27
2018-05-03T14:17:48.826Z,3.17
2018-05-03T14:20:53.104Z,1.93
2018-05-03T14:23:56.367Z,3.50
2018-05-03T14:27:00.538Z,2.67
2018-05-03T14:30:03.850Z,2.87
2018-05-03T14:33:07.197Z,3.90
2018-05-03T14:36:10.503Z,6.60
2018-05-03T14:39:13.950Z,3.23
2018-05-03T14:42:17.268Z,4.73
2018-05-03T14:45:20.630Z,5.97
2018-05-03T14:48:24.069Z,4.43
2018-05-03T14:51:27.432Z,3.20
2018-05-03T14:54:30.836Z,2.40
2018-05-03T14:57:34.254Z,2.23
2018-05-03T15:00:37.588Z,2.60
2018-05-03T15:03:41.768Z,3.17
2018-05-03T15:06:45.165Z,3.33
2018-05-03T15:09:48.562Z,2.17
2018-05-03T15:12:51.954Z,3.30
2018-05-03T15:15:55.290Z,2.03
2018-05-03T15:18:59.476Z,1.77
2018-05-03T15:22:02.874Z,2.53
2018-05-03T15:25:06.469Z,2.00
2018-05-03T15:28:09.819Z,2.60
2018-05-03T15:31:13.899Z,2.47
2018-05-03T15:34:17.248Z,2.57
2018-05-03T15:37:20.574Z,1.83
2018-05-03T15:40:23.995Z,3.70
2018-05-03T15:43:27.391Z,1.70
2018-05-03T15:46:30.749Z,3.10
2018-05-03T15:49:34.062Z,1.80
2018-05-03T15:52:37.462Z,0.80
2018-05-03T15:55:40.856Z,1.30
2018-05-03T15:58:44.143Z,3.17
2018-05-03T16:01:47.458Z,1.70
2018-05-03T16:04:50.793Z,3.63
2018-05-03T16:07:54.197Z,2.50
2018-05-03T16:10:57.545Z,2.30
2018-05-03T16:14:00.863Z,1.63
2018-05-03T16:17:04.222Z,3.03
2018-05-03T16:20:08.297Z,1.97
2018-05-03T16:23:11.701Z,3.50
2018-05-03T16:26:15.044Z,3.73
2018-05-03T16:29:18.505Z,2.00
2018-05-03T16:32:21.874Z,3.10
2018-05-03T16:35:25.232Z,3.23
2018-05-03T16:38:29.396Z,3.20
2018-05-03T16:41:32.801Z,2.40
2018-05-03T16:44:36.210Z,2.83
2018-05-03T16:47:39.607Z,3.53
2018-05-03T16:50:42.917Z,4.30
2018-05-03T16:53:46.313Z,5.07
2018-05-03T16:56:49.626Z,3.27
2018-05-03T16:59:54.494Z,2.80
2018-05-03T17:02:57.811Z,4.80
2018-05-03T17:06:01.241Z,3.37
2018-05-03T17:09:04.582Z,2.60
2018-05-03T17:12:08.762Z,2.97
2018-05-03T17:15:12.795Z,3.20
2018-05-03T17:18:16.221Z,3.00
2018-05-03T17:21:19.528Z,2.83
2018-05-03T17:24:22.967Z,1.50
2018-05-03T17:27:26.280Z,5.37
2018-05-03T17:30:29.676Z,2.63
2018-05-03T17:33:33.071Z,4.70
2018-05-03T17:36:36.401Z,4.93
2018-05-03T17:39:40.491Z,2.43
2018-05-03T17:42:43.830Z,4.53
2018-05-03T17:45:47.154Z,4.00
2018-05-03T17:48:50.585Z,4.70
2018-05-03T17:51:53.904Z,2.50
2018-05-03T17:54:58.103Z,4.90
2018-05-03T17:58:01.482Z,2.83
2018-05-03T18:01:04.898Z,4.67
2018-05-03T18:04:08.174Z,2.23
2018-05-03T18:07:11.519Z,5.00
2018-05-03T18:10:14.892Z,3.80
2018-05-03T18:13:18.292Z,4.53
2018-05-03T18:16:21.704Z,4.23
2018-05-03T18:19:24.985Z,3.33
2018-05-03T18:22:28.374Z,5.07
2018-05-03T18:25:31.731Z,4.10
2018-05-03T18:28:35.813Z,6.03
2018-05-03T18:31:39.161Z,5.23
2018-05-03T18:34:42.468Z,8.73
2018-05-03T18:37:45.814Z,2.53
2018-05-03T18:40:49.120Z,4.57
2018-05-03T18:43:52.514Z,7.13
2018-05-03T18:46:55.824Z,4.83
2018-05-03T18:50:00.021Z,6.03
2018-05-03T18:53:03.406Z,7.47
2018-05-03T18:56:06.819Z,9.70
2018-05-03T18:59:10.164Z,4.70
2018-05-03T19:02:13.515Z,10.53
2018-05-03T19:05:16.909Z,4.57
2018-05-03T19:08:20.256Z,7.00
2018-05-03T19:11:23.616Z,5.37
2018-05-03T19:14:26.967Z,5.83
2018-05-03T19:17:30.283Z,7.00
2018-05-03T19:20:33.688Z,5.83
2018-05-03T19:23:36.970Z,11.57
2018-05-03T19:26:40.386Z,7.00
2018-05-03T19:29:43.714Z,8.43
2018-05-03T19:32:47.086Z,8.93
2018-05-03T19:35:50.406Z,5.83
2018-05-03T19:38:53.845Z,6.00
2018-05-03T19:41:57.183Z,4.57
2018-05-03T19:45:00.514Z,7.53
2018-05-03T19:48:03.823Z,7.80
2018-05-03T19:51:08.023Z,6.83
2018-05-03T19:54:11.331Z,7.60
2018-05-03T19:57:14.700Z,5.27
2018-05-03T20:00:18.031Z,6.03
2018-05-03T20:03:22.226Z,7.93
2018-05-03T20:06:25.527Z,5.87
2018-05-03T20:09:28.906Z,4.37
2018-05-03T20:12:32.398Z,9.23
2018-05-03T20:15:35.780Z,6.80
2018-05-03T20:18:39.130Z,11.57
2018-05-03T20:21:42.509Z,6.37
2018-05-03T20:24:45.829Z,9.17
2018-05-03T20:27:49.218Z,5.87
2018-05-03T20:30:52.733Z,7.60
2018-05-03T20:33:56.119Z,11.37
2018-05-03T20:36:59.513Z,8.47
2018-05-03T20:40:03.105Z,10.10
2018-05-03T20:43:06.420Z,11.60
2018-05-03T20:46:09.887Z,5.57
2018-05-03T20:49:13.275Z,9.03
2018-05-03T20:52:16.716Z,6.10
2018-05-03T20:55:20.293Z,7.93
2018-05-03T20:58:23.726Z,8.70
2018-05-03T21:01:27.042Z,8.03
2018-05-03T21:04:30.386Z,5.90
2018-05-03T21:07:33.750Z,9.40
2018-05-03T21:10:37.953Z,12.33
2018-05-03T21:13:41.268Z,8.07
2018-05-03T21:16:44.616Z,10.53
2018-05-03T21:19:47.959Z,8.43
2018-05-03T21:22:51.502Z,10.40
2018-05-03T21:25:54.810Z,8.03
2018-05-03T21:28:58.234Z,7.20
2018-05-03T21:32:01.625Z,7.70
2018-05-03T21:35:04.961Z,11.03
2018-05-03T21:38:08.262Z,10.73
2018-05-03T21:41:12.446Z,11.83
2018-05-03T21:44:15.755Z,11.23
2018-05-03T21:47:19.101Z,11.57
2018-05-03T21:50:22.445Z,7.87
2018-05-03T21:53:25.806Z,8.57
2018-05-03T21:56:29.131Z,14.13
2018-05-03T21:59:32.456Z,8.00
2018-05-03T22:02:35.858Z,9.47
2018-05-03T22:05:39.197Z,10.17
2018-05-03T22:08:42.516Z,10.53
2018-05-03T22:11:45.837Z,9.97
2018-05-03T22:14:49.264Z,14.27
2018-05-03T22:17:52.640Z,11.87
2018-05-03T22:20:55.943Z,13.73
2018-05-03T22:23:59.277Z,8.77
2018-05-03T22:27:03.441Z,8.33
2018-05-03T22:30:06.802Z,9.40
2018-05-03T22:33:10.141Z,11.13
2018-05-03T22:36:13.541Z,10.90
2018-05-03T22:39:16.856Z,10.30
2018-05-03T22:42:20.248Z,13.10
2018-05-03T22:45:23.565Z,10.43
2018-05-03T22:48:26.874Z,12.30
2018-05-03T22:51:31.055Z,13.23
2018-05-03T22:54:34.389Z,13.63
2018-05-03T22:57:38.462Z,12.67
2018-05-03T23:00:41.778Z,10.10
2018-05-03T23:03:45.161Z,15.73
2018-05-03T23:06:48.462Z,14.60
2018-05-03T23:09:51.858Z,13.77
2018-05-03T23:12:55.167Z,15.60
2018-05-03T23:15:58.521Z,13.90
2018-05-03T23:19:01.817Z,19.03
2018-05-03T23:22:05.160Z,15.67
2018-05-03T23:25:08.479Z,14.33
2018-05-03T23:28:11.850Z,14.23
2018-05-03T23:31:15.148Z,13.73
2018-05-03T23:34:18.444Z,14.07
2018-05-03T23:37:21.773Z,7.03
2018-05-03T23:40:25.072Z,15.37
2018-05-03T23:43:28.370Z,14.20
2018-05-03T23:46:31.749Z,14.47
2018-05-03T23:49:35.123Z,11.70
2018-05-03T23:52:38.425Z,15.80
2018-05-03T23:55:41.747Z,17.37
2018-05-03T23:58:45.138Z,13.53
